Crew | Aerofun Virtual



 METAR AND TAF INFORMATION
METAR FOR LELN
ADDS - METARS form results

(1936 UTC 26 February 2020)
Data provider http://aviationweather.gov/metar/data/
 
METAR text: LELN 261930Z 25011KT 9999 FEW050 05/03 Q1021
Conditions at: LELN (LEON/VIRGEN CAMI, ES) observed 1930 UTC 26 February 2020
Temperature: 5.0°C (41°F)
Dewpoint: 3.0°C (37°F) [RH = 87%]
Pressure (altimeter): 30.15 inches Hg (1021.0 mb)
Winds: from the WSW (250 degrees) at 13 MPH (11 knots; 5.7 m/s)
Visibility: 6 or more miles (10+ km)
Ceiling: at least 12,000 feet AGL
Clouds: few clouds at 5000 feet AGL
Weather: no significant weather observed at this time

METAR text: LELN 261900Z 26014KT 220V280 9999 FEW050 06/03 Q1021
Conditions at: LELN (LEON/VIRGEN CAMI, ES) observed 1900 UTC 26 February 2020
Temperature: 6.0°C (43°F)
Dewpoint: 3.0°C (37°F) [RH = 81%]
Pressure (altimeter): 30.15 inches Hg (1021.0 mb)
Winds: from the W (260 degrees) at 16 MPH (14 knots; 7.2 m/s)
Visibility: 6 or more miles (10+ km)
Ceiling: at least 12,000 feet AGL
Clouds: few clouds at 5000 feet AGL
Weather: no significant weather observed at this time

Forecast for: LELN (LEON/VIRGEN CAMI, ES)
Text: TAF LELN 261700Z 2618/2703 26010KT 9999 SCT050
Forecast period: 1800 UTC 26 February 2020 to 0300 UTC 27 February 2020
Forecast type: FROM: standard forecast or significant change
Winds: from the W (260 degrees) at 12 MPH (10 knots; 5.1 m/s)
Visibility: 6 or more miles 10+ km)
Ceiling: at least 12,000 feet AGL
Clouds: scattered clouds at 5000 feet AGL
Weather: no significant weather forecast for this period
Text: PROB30
Forecast period: 0100 to 0300 UTC 27 February 2020
Forecast type: TEMPORARY: The following changes expected for less than half the time period
Visibility: missing
Ceiling: 600 feet AGL
Clouds: broken clouds at 600 feet AGL
Weather: no significant weather forecast for this period

 AIRPORT MAP

 RUNWAY INFORMATION
Runway 05 Runway length 6890 ft Runway width 148 ft
Runway elevation 2994 ft Runway displaced threshold 0 ft Runway heading 45
Runway 23 Runway length 6890 ft Runway width 148 ft
Runway elevation 3001 ft Runway displaced threshold 0 ft Runway heading 225
Runway 06 Runway length 3609 ft Runway width 328 ft
Runway elevation 3034 ft Runway displaced threshold 0 ft Runway heading 60
Runway 24 Runway length 3609 ft Runway width 328 ft
Runway elevation 3000 ft Runway displaced threshold 0 ft Runway heading 240

 AIRPORT FREQUENCIES
Type APP Name APP Frequency 122.1 MHZ
Type TWR Name TWR Frequency 122.1 MHZ

 AIRPORT NEAR NAVIGATION AIDS
Type VOR-DME Name Leon Frequency 112000 KHZ
Type NDB Name Leon Frequency 330 KHZ